Terminal Aerodrome Forecast
Issued by NWS

Home | Current Version | Previous Version | Text Only | Print | Product List | Glossary On
Versions: 1 2 3 4 5 6 7 8 9 10 11 12 13 14 15 16 17 18 19 20 21
000
FTUS43 KABR 230500
TAFPIR
TAF
KPIR 230538Z 2306/2406 VRB06KT P6SM VCSH BKN080 OVC120
      TEMPO 2306/2309 -RA BKN060 OVC080
     FM230900 30010KT P6SM OVC080
     FM231200 30016G25KT P6SM SCT090 BKN150
     FM231800 32029G37KT P6SM BKN150=

USA.gov is the U.S. government's official web portal to all federal, state and local government web resources and services.